sensor_id;sensor_type;location;lat;lon;timestamp;temperature;humidity
67141;DHT22;54058;52.010;5.546;2024-02-04T00:00:34;10.70;99.90
67141;DHT22;54058;52.010;5.546;2024-02-04T00:03:00;10.70;99.90
67141;DHT22;54058;52.010;5.546;2024-02-04T00:05:26;10.70;99.90
67141;DHT22;54058;52.010;5.546;2024-02-04T00:07:51;10.70;99.90
67141;DHT22;54058;52.010;5.546;2024-02-04T00:10:17;10.70;99.90
67141;DHT22;54058;52.010;5.546;2024-02-04T00:12:44;10.70;99.90
67141;DHT22;54058;52.010;5.546;2024-02-04T00:15:10;10.70;99.90
67141;DHT22;54058;52.010;5.546;2024-02-04T00:17:35;10.70;99.90
67141;DHT22;54058;52.010;5.546;2024-02-04T00:20:03;10.70;99.90
67141;DHT22;54058;52.010;5.546;2024-02-04T00:22:34;10.70;99.90
67141;DHT22;54058;52.010;5.546;2024-02-04T00:25:00;10.70;99.90
67141;DHT22;54058;52.010;5.546;2024-02-04T00:27:31;10.70;99.90
67141;DHT22;54058;52.010;5.546;2024-02-04T00:29:57;10.70;99.90
67141;DHT22;54058;52.010;5.546;2024-02-04T00:32:23;10.70;99.90
67141;DHT22;54058;52.010;5.546;2024-02-04T00:34:49;10.70;99.90
67141;DHT22;54058;52.010;5.546;2024-02-04T00:37:14;10.70;99.90
67141;DHT22;54058;52.010;5.546;2024-02-04T00:39:40;10.80;99.90
67141;DHT22;54058;52.010;5.546;2024-02-04T00:42:05;10.80;99.90
67141;DHT22;54058;52.010;5.546;2024-02-04T00:44:31;10.70;99.90
67141;DHT22;54058;52.010;5.546;2024-02-04T00:46:57;10.70;99.90
67141;DHT22;54058;52.010;5.546;2024-02-04T00:49:22;10.80;99.90
67141;DHT22;54058;52.010;5.546;2024-02-04T00:51:48;10.80;99.90
67141;DHT22;54058;52.010;5.546;2024-02-04T00:54:14;10.80;99.90
67141;DHT22;54058;52.010;5.546;2024-02-04T00:56:39;10.80;99.90
67141;DHT22;54058;52.010;5.546;2024-02-04T00:59:05;10.80;99.90
67141;DHT22;54058;52.010;5.546;2024-02-04T01:01:31;10.80;99.90
67141;DHT22;54058;52.010;5.546;2024-02-04T01:03:56;10.80;99.90
67141;DHT22;54058;52.010;5.546;2024-02-04T01:06:22;10.80;99.90
67141;DHT22;54058;52.010;5.546;2024-02-04T01:08:48;10.90;99.90
67141;DHT22;54058;52.010;5.546;2024-02-04T01:11:13;10.80;99.90
67141;DHT22;54058;52.010;5.546;2024-02-04T01:13:39;10.80;99.90
67141;DHT22;54058;52.010;5.546;2024-02-04T01:16:05;10.90;99.90
67141;DHT22;54058;52.010;5.546;2024-02-04T01:18:30;10.90;99.90
67141;DHT22;54058;52.010;5.546;2024-02-04T01:20:57;10.90;99.90
67141;DHT22;54058;52.010;5.546;2024-02-04T01:23:23;10.90;99.90
67141;DHT22;54058;52.010;5.546;2024-02-04T01:25:49;10.90;99.90
67141;DHT22;54058;52.010;5.546;2024-02-04T01:28:15;10.90;99.90
67141;DHT22;54058;52.010;5.546;2024-02-04T01:30:40;10.90;99.90
67141;DHT22;54058;52.010;5.546;2024-02-04T01:33:06;10.90;99.90
67141;DHT22;54058;52.010;5.546;2024-02-04T01:35:31;10.90;99.90
67141;DHT22;54058;52.010;5.546;2024-02-04T01:37:57;10.90;99.90
67141;DHT22;54058;52.010;5.546;2024-02-04T01:40:22;10.90;99.90
67141;DHT22;54058;52.010;5.546;2024-02-04T01:42:48;10.90;99.90
67141;DHT22;54058;52.010;5.546;2024-02-04T01:45:14;10.90;99.90
67141;DHT22;54058;52.010;5.546;2024-02-04T01:47:39;10.80;99.90
67141;DHT22;54058;52.010;5.546;2024-02-04T01:50:06;10.80;99.90
67141;DHT22;54058;52.010;5.546;2024-02-04T01:52:34;10.80;99.90
67141;DHT22;54058;52.010;5.546;2024-02-04T01:55:00;10.80;99.90
67141;DHT22;54058;52.010;5.546;2024-02-04T01:57:28;10.80;99.90
67141;DHT22;54058;52.010;5.546;2024-02-04T01:59:55;10.90;99.90
67141;DHT22;54058;52.010;5.546;2024-02-04T02:02:22;10.90;99.90
67141;DHT22;54058;52.010;5.546;2024-02-04T02:04:48;10.80;99.90
67141;DHT22;54058;52.010;5.546;2024-02-04T02:07:15;10.80;99.90
67141;DHT22;54058;52.010;5.546;2024-02-04T02:09:45;10.80;99.90
67141;DHT22;54058;52.010;5.546;2024-02-04T02:12:14;10.80;99.90
67141;DHT22;54058;52.010;5.546;2024-02-04T02:14:46;10.80;99.90
67141;DHT22;54058;52.010;5.546;2024-02-04T02:17:16;10.80;99.90
67141;DHT22;54058;52.010;5.546;2024-02-04T02:20:09;10.80;99.90
67141;DHT22;54058;52.010;5.546;2024-02-04T02:22:48;10.80;99.90
67141;DHT22;54058;52.010;5.546;2024-02-04T02:25:14;10.80;99.90
67141;DHT22;54058;52.010;5.546;2024-02-04T02:27:48;10.80;99.90
67141;DHT22;54058;52.010;5.546;2024-02-04T02:30:14;10.80;99.90
67141;DHT22;54058;52.010;5.546;2024-02-04T02:32:40;10.80;99.90
67141;DHT22;54058;52.010;5.546;2024-02-04T02:35:06;10.80;99.90
67141;DHT22;54058;52.010;5.546;2024-02-04T02:38:11;10.80;99.90
67141;DHT22;54058;52.010;5.546;2024-02-04T02:40:46;10.80;99.90
67141;DHT22;54058;52.010;5.546;2024-02-04T02:43:13;10.80;99.90
67141;DHT22;54058;52.010;5.546;2024-02-04T02:45:42;10.80;99.90
67141;DHT22;54058;52.010;5.546;2024-02-04T02:48:08;10.80;99.90
67141;DHT22;54058;52.010;5.546;2024-02-04T02:50:35;10.80;99.90
67141;DHT22;54058;52.010;5.546;2024-02-04T02:53:01;10.80;99.90
67141;DHT22;54058;52.010;5.546;2024-02-04T02:55:26;10.70;99.90
67141;DHT22;54058;52.010;5.546;2024-02-04T02:57:52;10.70;99.90
67141;DHT22;54058;52.010;5.546;2024-02-04T03:00:18;10.70;99.90
67141;DHT22;54058;52.010;5.546;2024-02-04T03:02:43;10.70;99.90
67141;DHT22;54058;52.010;5.546;2024-02-04T03:05:09;10.70;99.90
67141;DHT22;54058;52.010;5.546;2024-02-04T03:07:35;10.70;99.90
67141;DHT22;54058;52.010;5.546;2024-02-04T03:10:00;10.70;99.90
67141;DHT22;54058;52.010;5.546;2024-02-04T03:12:26;10.70;99.90
67141;DHT22;54058;52.010;5.546;2024-02-04T03:14:52;10.80;99.90
67141;DHT22;54058;52.010;5.546;2024-02-04T03:17:17;10.70;99.90
67141;DHT22;54058;52.010;5.546;2024-02-04T03:19:49;10.70;99.90
67141;DHT22;54058;52.010;5.546;2024-02-04T03:22:17;10.70;99.90
67141;DHT22;54058;52.010;5.546;2024-02-04T03:24:43;10.70;99.90
67141;DHT22;54058;52.010;5.546;2024-02-04T03:27:08;10.70;99.90
67141;DHT22;54058;52.010;5.546;2024-02-04T03:29:34;10.70;99.90
67141;DHT22;54058;52.010;5.546;2024-02-04T03:32:00;10.60;99.90
67141;DHT22;54058;52.010;5.546;2024-02-04T03:34:25;10.60;99.90
67141;DHT22;54058;52.010;5.546;2024-02-04T03:36:51;10.60;99.90
67141;DHT22;54058;52.010;5.546;2024-02-04T03:39:17;10.60;99.90
67141;DHT22;54058;52.010;5.546;2024-02-04T03:41:42;10.60;99.90
67141;DHT22;54058;52.010;5.546;2024-02-04T03:44:08;10.50;99.90
67141;DHT22;54058;52.010;5.546;2024-02-04T03:46:33;10.50;99.90
67141;DHT22;54058;52.010;5.546;2024-02-04T03:48:59;10.50;99.90
67141;DHT22;54058;52.010;5.546;2024-02-04T03:51:24;10.50;99.90
67141;DHT22;54058;52.010;5.546;2024-02-04T03:53:50;10.50;99.90
67141;DHT22;54058;52.010;5.546;2024-02-04T03:56:17;10.50;99.90
67141;DHT22;54058;52.010;5.546;2024-02-04T03:58:43;10.50;99.90
67141;DHT22;54058;52.010;5.546;2024-02-04T04:01:12;10.50;99.90
67141;DHT22;54058;52.010;5.546;2024-02-04T04:03:44;10.40;99.90
67141;DHT22;54058;52.010;5.546;2024-02-04T04:06:10;10.40;99.90
67141;DHT22;54058;52.010;5.546;2024-02-04T04:08:37;10.40;99.90
67141;DHT22;54058;52.010;5.546;2024-02-04T04:11:02;10.40;99.90
67141;DHT22;54058;52.010;5.546;2024-02-04T04:13:29;10.50;99.90
67141;DHT22;54058;52.010;5.546;2024-02-04T04:15:54;10.40;99.90
67141;DHT22;54058;52.010;5.546;2024-02-04T04:18:20;10.40;99.90
67141;DHT22;54058;52.010;5.546;2024-02-04T04:20:46;10.40;99.90
67141;DHT22;54058;52.010;5.546;2024-02-04T04:23:12;10.40;99.90
67141;DHT22;54058;52.010;5.546;2024-02-04T04:25:38;10.40;99.90
67141;DHT22;54058;52.010;5.546;2024-02-04T04:28:04;10.40;99.90
67141;DHT22;54058;52.010;5.546;2024-02-04T04:30:29;10.50;99.90
67141;DHT22;54058;52.010;5.546;2024-02-04T04:32:56;10.40;99.90
67141;DHT22;54058;52.010;5.546;2024-02-04T04:35:23;10.50;99.90
67141;DHT22;54058;52.010;5.546;2024-02-04T04:37:48;10.50;99.90
67141;DHT22;54058;52.010;5.546;2024-02-04T04:40:14;10.40;99.90
67141;DHT22;54058;52.010;5.546;2024-02-04T04:42:40;10.40;99.90
67141;DHT22;54058;52.010;5.546;2024-02-04T04:45:06;10.40;99.90
67141;DHT22;54058;52.010;5.546;2024-02-04T04:47:33;10.40;99.90
67141;DHT22;54058;52.010;5.546;2024-02-04T04:49:59;10.40;99.90
67141;DHT22;54058;52.010;5.546;2024-02-04T04:52:25;10.30;99.90
67141;DHT22;54058;52.010;5.546;2024-02-04T04:54:50;10.30;99.90
67141;DHT22;54058;52.010;5.546;2024-02-04T04:57:16;10.30;99.90
67141;DHT22;54058;52.010;5.546;2024-02-04T04:59:42;10.20;99.90
67141;DHT22;54058;52.010;5.546;2024-02-04T05:02:08;10.20;99.90
67141;DHT22;54058;52.010;5.546;2024-02-04T05:04:36;10.20;99.90
67141;DHT22;54058;52.010;5.546;2024-02-04T05:07:01;10.20;99.90
67141;DHT22;54058;52.010;5.546;2024-02-04T05:09:27;10.20;99.90
67141;DHT22;54058;52.010;5.546;2024-02-04T05:11:52;10.20;99.90
67141;DHT22;54058;52.010;5.546;2024-02-04T05:14:18;10.20;99.90
67141;DHT22;54058;52.010;5.546;2024-02-04T05:16:45;10.20;99.90
67141;DHT22;54058;52.010;5.546;2024-02-04T05:19:11;10.20;99.90
67141;DHT22;54058;52.010;5.546;2024-02-04T05:21:40;10.20;99.90
67141;DHT22;54058;52.010;5.546;2024-02-04T05:24:06;10.20;99.90
67141;DHT22;54058;52.010;5.546;2024-02-04T05:26:32;10.20;99.90
67141;DHT22;54058;52.010;5.546;2024-02-04T05:28:57;10.20;99.90
67141;DHT22;54058;52.010;5.546;2024-02-04T05:31:23;10.20;99.90
67141;DHT22;54058;52.010;5.546;2024-02-04T05:33:50;10.20;99.90
67141;DHT22;54058;52.010;5.546;2024-02-04T05:36:16;10.20;99.90
67141;DHT22;54058;52.010;5.546;2024-02-04T05:38:44;10.10;99.90
67141;DHT22;54058;52.010;5.546;2024-02-04T05:41:10;10.20;99.90
67141;DHT22;54058;52.010;5.546;2024-02-04T05:43:36;10.20;99.90
67141;DHT22;54058;52.010;5.546;2024-02-04T05:46:01;10.20;99.90
67141;DHT22;54058;52.010;5.546;2024-02-04T05:48:27;10.20;99.90
67141;DHT22;54058;52.010;5.546;2024-02-04T05:50:53;10.20;99.90
67141;DHT22;54058;52.010;5.546;2024-02-04T05:53:18;10.20;99.90
67141;DHT22;54058;52.010;5.546;2024-02-04T05:55:44;10.20;99.90
67141;DHT22;54058;52.010;5.546;2024-02-04T05:58:10;10.20;99.90
67141;DHT22;54058;52.010;5.546;2024-02-04T06:00:36;10.20;99.90
67141;DHT22;54058;52.010;5.546;2024-02-04T06:03:01;10.20;99.90
67141;DHT22;54058;52.010;5.546;2024-02-04T06:05:27;10.20;99.90
67141;DHT22;54058;52.010;5.546;2024-02-04T06:07:52;10.20;99.90
67141;DHT22;54058;52.010;5.546;2024-02-04T06:10:18;10.20;99.90
67141;DHT22;54058;52.010;5.546;2024-02-04T06:12:44;10.20;99.90
67141;DHT22;54058;52.010;5.546;2024-02-04T06:15:14;10.20;99.90
67141;DHT22;54058;52.010;5.546;2024-02-04T06:17:40;10.30;99.90
67141;DHT22;54058;52.010;5.546;2024-02-04T06:20:06;10.20;99.90
67141;DHT22;54058;52.010;5.546;2024-02-04T06:22:34;10.20;99.90
67141;DHT22;54058;52.010;5.546;2024-02-04T06:25:00;10.20;99.90
67141;DHT22;54058;52.010;5.546;2024-02-04T06:27:25;10.20;99.90
67141;DHT22;54058;52.010;5.546;2024-02-04T06:29:51;10.20;99.90
67141;DHT22;54058;52.010;5.546;2024-02-04T06:32:17;10.20;99.90
67141;DHT22;54058;52.010;5.546;2024-02-04T06:34:46;10.20;99.90
67141;DHT22;54058;52.010;5.546;2024-02-04T06:37:11;10.20;99.90
67141;DHT22;54058;52.010;5.546;2024-02-04T06:39:37;10.20;99.90
67141;DHT22;54058;52.010;5.546;2024-02-04T06:42:03;10.20;99.90
67141;DHT22;54058;52.010;5.546;2024-02-04T06:44:29;10.30;99.90
67141;DHT22;54058;52.010;5.546;2024-02-04T06:46:54;10.30;99.90
67141;DHT22;54058;52.010;5.546;2024-02-04T06:49:20;10.30;99.90
67141;DHT22;54058;52.010;5.546;2024-02-04T06:51:46;10.30;99.90
67141;DHT22;54058;52.010;5.546;2024-02-04T06:54:12;10.30;99.90
67141;DHT22;54058;52.010;5.546;2024-02-04T06:56:38;10.30;99.90
67141;DHT22;54058;52.010;5.546;2024-02-04T06:59:03;10.30;99.90
67141;DHT22;54058;52.010;5.546;2024-02-04T07:01:29;10.30;99.90
67141;DHT22;54058;52.010;5.546;2024-02-04T07:03:55;10.30;99.90
67141;DHT22;54058;52.010;5.546;2024-02-04T07:06:20;10.30;99.90
67141;DHT22;54058;52.010;5.546;2024-02-04T07:08:46;10.30;99.90
67141;DHT22;54058;52.010;5.546;2024-02-04T07:11:12;10.30;99.90
67141;DHT22;54058;52.010;5.546;2024-02-04T07:13:37;10.30;99.90
67141;DHT22;54058;52.010;5.546;2024-02-04T07:16:03;10.40;99.90
67141;DHT22;54058;52.010;5.546;2024-02-04T07:18:29;10.40;99.90
67141;DHT22;54058;52.010;5.546;2024-02-04T07:20:54;10.40;99.90
67141;DHT22;54058;52.010;5.546;2024-02-04T07:23:20;10.40;99.90
67141;DHT22;54058;52.010;5.546;2024-02-04T07:25:47;10.40;99.90
67141;DHT22;54058;52.010;5.546;2024-02-04T07:28:12;10.40;99.90
67141;DHT22;54058;52.010;5.546;2024-02-04T07:30:38;10.40;99.90
67141;DHT22;54058;52.010;5.546;2024-02-04T07:33:04;10.40;99.90
67141;DHT22;54058;52.010;5.546;2024-02-04T07:35:29;10.40;99.90
67141;DHT22;54058;52.010;5.546;2024-02-04T07:37:55;10.40;99.90
67141;DHT22;54058;52.010;5.546;2024-02-04T07:40:21;10.50;99.90
67141;DHT22;54058;52.010;5.546;2024-02-04T07:42:46;10.50;99.90
67141;DHT22;54058;52.010;5.546;2024-02-04T07:45:12;10.40;99.90
67141;DHT22;54058;52.010;5.546;2024-02-04T07:47:37;10.50;99.90
67141;DHT22;54058;52.010;5.546;2024-02-04T07:50:03;10.50;99.90
67141;DHT22;54058;52.010;5.546;2024-02-04T07:52:29;10.50;99.90
67141;DHT22;54058;52.010;5.546;2024-02-04T07:54:54;10.50;99.90
67141;DHT22;54058;52.010;5.546;2024-02-04T07:57:20;10.50;99.90
67141;DHT22;54058;52.010;5.546;2024-02-04T07:59:46;10.50;99.90
67141;DHT22;54058;52.010;5.546;2024-02-04T08:02:11;10.50;99.90
67141;DHT22;54058;52.010;5.546;2024-02-04T08:04:40;10.50;99.90
67141;DHT22;54058;52.010;5.546;2024-02-04T08:07:06;10.50;99.90
67141;DHT22;54058;52.010;5.546;2024-02-04T08:09:32;10.50;99.90
67141;DHT22;54058;52.010;5.546;2024-02-04T08:11:58;10.50;99.90
67141;DHT22;54058;52.010;5.546;2024-02-04T08:14:23;10.50;99.90
67141;DHT22;54058;52.010;5.546;2024-02-04T08:16:49;10.60;99.90
67141;DHT22;54058;52.010;5.546;2024-02-04T08:19:16;10.60;99.90
67141;DHT22;54058;52.010;5.546;2024-02-04T08:21:42;10.60;99.90
67141;DHT22;54058;52.010;5.546;2024-02-04T08:24:08;10.60;99.90
67141;DHT22;54058;52.010;5.546;2024-02-04T08:26:34;10.50;99.90
67141;DHT22;54058;52.010;5.546;2024-02-04T08:29:00;10.50;99.90
67141;DHT22;54058;52.010;5.546;2024-02-04T08:31:26;10.50;99.90
67141;DHT22;54058;52.010;5.546;2024-02-04T08:33:51;10.50;99.90
67141;DHT22;54058;52.010;5.546;2024-02-04T08:36:18;10.50;99.90
67141;DHT22;54058;52.010;5.546;2024-02-04T08:38:44;10.50;99.90
67141;DHT22;54058;52.010;5.546;2024-02-04T08:41:10;10.50;99.90
67141;DHT22;54058;52.010;5.546;2024-02-04T08:43:36;10.50;99.90
67141;DHT22;54058;52.010;5.546;2024-02-04T08:46:01;10.50;99.90
67141;DHT22;54058;52.010;5.546;2024-02-04T08:48:27;10.50;99.90
67141;DHT22;54058;52.010;5.546;2024-02-04T08:50:52;10.50;99.90
67141;DHT22;54058;52.010;5.546;2024-02-04T08:53:20;10.50;99.90
67141;DHT22;54058;52.010;5.546;2024-02-04T08:55:46;10.50;99.90
67141;DHT22;54058;52.010;5.546;2024-02-04T08:58:12;10.50;99.90
67141;DHT22;54058;52.010;5.546;2024-02-04T09:00:37;10.50;99.90
67141;DHT22;54058;52.010;5.546;2024-02-04T09:03:03;10.50;99.90
67141;DHT22;54058;52.010;5.546;2024-02-04T09:05:29;10.50;99.90
67141;DHT22;54058;52.010;5.546;2024-02-04T09:07:54;10.50;99.90
67141;DHT22;54058;52.010;5.546;2024-02-04T09:10:21;10.50;99.90
67141;DHT22;54058;52.010;5.546;2024-02-04T09:12:47;10.50;99.90
67141;DHT22;54058;52.010;5.546;2024-02-04T09:15:13;10.60;99.90
67141;DHT22;54058;52.010;5.546;2024-02-04T09:17:38;10.60;99.90
67141;DHT22;54058;52.010;5.546;2024-02-04T09:20:05;10.70;99.90
67141;DHT22;54058;52.010;5.546;2024-02-04T09:22:31;10.70;99.90
67141;DHT22;54058;52.010;5.546;2024-02-04T09:24:56;10.70;99.90
67141;DHT22;54058;52.010;5.546;2024-02-04T09:27:22;10.70;99.90
67141;DHT22;54058;52.010;5.546;2024-02-04T09:29:48;10.70;99.90
67141;DHT22;54058;52.010;5.546;2024-02-04T09:32:13;10.70;99.90
67141;DHT22;54058;52.010;5.546;2024-02-04T09:34:39;10.80;99.90
67141;DHT22;54058;52.010;5.546;2024-02-04T09:37:04;10.80;99.90
67141;DHT22;54058;52.010;5.546;2024-02-04T09:39:30;10.80;99.90
67141;DHT22;54058;52.010;5.546;2024-02-04T09:41:56;10.90;99.90
67141;DHT22;54058;52.010;5.546;2024-02-04T09:44:23;10.90;99.90
67141;DHT22;54058;52.010;5.546;2024-02-04T09:46:49;10.90;99.90
67141;DHT22;54058;52.010;5.546;2024-02-04T09:49:14;11.00;99.90
67141;DHT22;54058;52.010;5.546;2024-02-04T09:51:41;11.00;99.90
67141;DHT22;54058;52.010;5.546;2024-02-04T09:54:10;11.10;99.90
67141;DHT22;54058;52.010;5.546;2024-02-04T09:56:37;11.10;99.90
67141;DHT22;54058;52.010;5.546;2024-02-04T09:59:03;11.10;99.90
67141;DHT22;54058;52.010;5.546;2024-02-04T10:01:30;11.20;99.90
67141;DHT22;54058;52.010;5.546;2024-02-04T10:03:56;11.20;99.90
67141;DHT22;54058;52.010;5.546;2024-02-04T10:06:22;11.20;99.90
67141;DHT22;54058;52.010;5.546;2024-02-04T10:08:48;11.30;99.90
67141;DHT22;54058;52.010;5.546;2024-02-04T10:11:13;11.30;99.90
67141;DHT22;54058;52.010;5.546;2024-02-04T10:13:47;11.30;99.90
67141;DHT22;54058;52.010;5.546;2024-02-04T10:16:13;11.40;99.90
67141;DHT22;54058;52.010;5.546;2024-02-04T10:18:44;11.40;99.90
67141;DHT22;54058;52.010;5.546;2024-02-04T10:21:20;11.40;99.90
67141;DHT22;54058;52.010;5.546;2024-02-04T10:23:50;11.40;99.90
67141;DHT22;54058;52.010;5.546;2024-02-04T10:26:17;11.40;99.90
67141;DHT22;54058;52.010;5.546;2024-02-04T10:28:45;11.40;99.90
67141;DHT22;54058;52.010;5.546;2024-02-04T10:31:12;11.50;99.90
67141;DHT22;54058;52.010;5.546;2024-02-04T10:33:37;11.50;99.90
67141;DHT22;54058;52.010;5.546;2024-02-04T10:36:04;11.50;99.90
67141;DHT22;54058;52.010;5.546;2024-02-04T10:38:30;11.50;99.90
67141;DHT22;54058;52.010;5.546;2024-02-04T10:40:59;11.60;99.90
67141;DHT22;54058;52.010;5.546;2024-02-04T10:43:32;11.60;99.90
67141;DHT22;54058;52.010;5.546;2024-02-04T10:46:01;11.60;99.90
67141;DHT22;54058;52.010;5.546;2024-02-04T10:48:34;11.70;99.90
67141;DHT22;54058;52.010;5.546;2024-02-04T10:51:13;11.70;99.90
67141;DHT22;54058;52.010;5.546;2024-02-04T10:53:43;11.70;99.90
67141;DHT22;54058;52.010;5.546;2024-02-04T10:56:14;11.70;99.90
67141;DHT22;54058;52.010;5.546;2024-02-04T10:58:44;11.80;99.90
67141;DHT22;54058;52.010;5.546;2024-02-04T11:01:10;11.80;99.90
67141;DHT22;54058;52.010;5.546;2024-02-04T11:03:37;11.80;99.90
67141;DHT22;54058;52.010;5.546;2024-02-04T11:06:04;11.80;99.90
67141;DHT22;54058;52.010;5.546;2024-02-04T11:08:30;11.70;99.90
67141;DHT22;54058;52.010;5.546;2024-02-04T11:10:56;11.70;99.90
67141;DHT22;54058;52.010;5.546;2024-02-04T11:13:23;11.60;99.90
67141;DHT22;54058;52.010;5.546;2024-02-04T11:15:49;11.60;99.90
67141;DHT22;54058;52.010;5.546;2024-02-04T11:21:03;11.50;99.90
67141;DHT22;54058;52.010;5.546;2024-02-04T11:26:19;11.50;99.90
67141;DHT22;54058;52.010;5.546;2024-02-04T11:28:45;11.40;99.90
67141;DHT22;54058;52.010;5.546;2024-02-04T11:31:17;11.40;99.90
67141;DHT22;54058;52.010;5.546;2024-02-04T11:33:42;11.40;99.90
67141;DHT22;54058;52.010;5.546;2024-02-04T11:36:13;11.40;99.90
67141;DHT22;54058;52.010;5.546;2024-02-04T11:38:41;11.40;99.90
67141;DHT22;54058;52.010;5.546;2024-02-04T11:41:07;11.40;99.90
67141;DHT22;54058;52.010;5.546;2024-02-04T11:43:34;11.40;99.90
67141;DHT22;54058;52.010;5.546;2024-02-04T11:46:05;11.40;99.90
67141;DHT22;54058;52.010;5.546;2024-02-04T11:48:33;11.30;99.90
67141;DHT22;54058;52.010;5.546;2024-02-04T11:50:59;11.30;99.90
67141;DHT22;54058;52.010;5.546;2024-02-04T11:53:29;11.30;99.90
67141;DHT22;54058;52.010;5.546;2024-02-04T11:55:59;11.30;99.90
67141;DHT22;54058;52.010;5.546;2024-02-04T11:58:29;11.30;99.90
67141;DHT22;54058;52.010;5.546;2024-02-04T12:00:56;11.20;99.90
67141;DHT22;54058;52.010;5.546;2024-02-04T12:03:33;11.20;99.90
67141;DHT22;54058;52.010;5.546;2024-02-04T12:05:59;11.30;99.90
67141;DHT22;54058;52.010;5.546;2024-02-04T12:08:26;11.20;99.90
67141;DHT22;54058;52.010;5.546;2024-02-04T12:10:53;11.20;99.90
67141;DHT22;54058;52.010;5.546;2024-02-04T12:13:19;11.20;99.90
67141;DHT22;54058;52.010;5.546;2024-02-04T12:15:48;11.30;99.90
67141;DHT22;54058;52.010;5.546;2024-02-04T12:18:16;11.20;99.90
67141;DHT22;54058;52.010;5.546;2024-02-04T12:20:47;11.20;99.90
67141;DHT22;54058;52.010;5.546;2024-02-04T12:23:15;11.20;99.90
67141;DHT22;54058;52.010;5.546;2024-02-04T12:25:41;11.30;99.90
67141;DHT22;54058;52.010;5.546;2024-02-04T12:28:06;11.30;99.90
67141;DHT22;54058;52.010;5.546;2024-02-04T12:30:32;11.30;99.90
67141;DHT22;54058;52.010;5.546;2024-02-04T12:33:00;11.30;99.90
67141;DHT22;54058;52.010;5.546;2024-02-04T12:35:26;11.30;99.90
67141;DHT22;54058;52.010;5.546;2024-02-04T12:37:57;11.40;99.90
67141;DHT22;54058;52.010;5.546;2024-02-04T12:40:24;11.40;99.90
67141;DHT22;54058;52.010;5.546;2024-02-04T12:43:01;11.40;99.90
67141;DHT22;54058;52.010;5.546;2024-02-04T12:45:27;11.40;99.90
67141;DHT22;54058;52.010;5.546;2024-02-04T12:47:55;11.40;99.90
67141;DHT22;54058;52.010;5.546;2024-02-04T12:50:21;11.40;99.90
67141;DHT22;54058;52.010;5.546;2024-02-04T12:52:49;11.50;99.90
67141;DHT22;54058;52.010;5.546;2024-02-04T12:55:30;11.40;99.90
67141;DHT22;54058;52.010;5.546;2024-02-04T12:58:12;11.40;99.90
67141;DHT22;54058;52.010;5.546;2024-02-04T13:00:40;11.40;99.90
67141;DHT22;54058;52.010;5.546;2024-02-04T13:03:07;11.40;99.90
67141;DHT22;54058;52.010;5.546;2024-02-04T13:05:33;11.40;99.90
67141;DHT22;54058;52.010;5.546;2024-02-04T13:08:01;11.40;99.90
67141;DHT22;54058;52.010;5.546;2024-02-04T13:10:35;11.40;99.90
67141;DHT22;54058;52.010;5.546;2024-02-04T13:15:29;11.40;99.90
67141;DHT22;54058;52.010;5.546;2024-02-04T13:17:55;11.40;99.90
67141;DHT22;54058;52.010;5.546;2024-02-04T13:20:22;11.30;99.90
67141;DHT22;54058;52.010;5.546;2024-02-04T13:22:47;11.30;99.90
67141;DHT22;54058;52.010;5.546;2024-02-04T13:25:13;11.30;99.90
67141;DHT22;54058;52.010;5.546;2024-02-04T13:27:40;11.20;99.90
67141;DHT22;54058;52.010;5.546;2024-02-04T13:30:07;11.30;99.90
67141;DHT22;54058;52.010;5.546;2024-02-04T13:32:38;11.20;99.90
67141;DHT22;54058;52.010;5.546;2024-02-04T13:35:04;11.20;99.90
67141;DHT22;54058;52.010;5.546;2024-02-04T13:37:31;11.30;99.90
67141;DHT22;54058;52.010;5.546;2024-02-04T13:39:57;11.30;99.90
67141;DHT22;54058;52.010;5.546;2024-02-04T13:42:23;11.30;99.90
67141;DHT22;54058;52.010;5.546;2024-02-04T13:44:48;11.30;99.90
67141;DHT22;54058;52.010;5.546;2024-02-04T13:47:14;11.30;99.90
67141;DHT22;54058;52.010;5.546;2024-02-04T13:49:40;11.30;99.90
67141;DHT22;54058;52.010;5.546;2024-02-04T13:52:05;11.40;99.90
67141;DHT22;54058;52.010;5.546;2024-02-04T13:54:31;11.40;99.90
67141;DHT22;54058;52.010;5.546;2024-02-04T13:56:58;11.40;99.90
67141;DHT22;54058;52.010;5.546;2024-02-04T13:59:23;11.40;99.90
67141;DHT22;54058;52.010;5.546;2024-02-04T14:01:49;11.40;99.90
67141;DHT22;54058;52.010;5.546;2024-02-04T14:04:15;11.40;99.90
67141;DHT22;54058;52.010;5.546;2024-02-04T14:06:41;11.40;99.90
67141;DHT22;54058;52.010;5.546;2024-02-04T14:09:06;11.40;99.90
67141;DHT22;54058;52.010;5.546;2024-02-04T14:11:32;11.40;99.90
67141;DHT22;54058;52.010;5.546;2024-02-04T14:13:58;11.50;99.90
67141;DHT22;54058;52.010;5.546;2024-02-04T14:16:24;11.50;99.90
67141;DHT22;54058;52.010;5.546;2024-02-04T14:18:50;11.50;99.90
67141;DHT22;54058;52.010;5.546;2024-02-04T14:21:16;11.50;99.90
67141;DHT22;54058;52.010;5.546;2024-02-04T14:23:42;11.40;99.90
67141;DHT22;54058;52.010;5.546;2024-02-04T14:26:15;11.50;99.90
67141;DHT22;54058;52.010;5.546;2024-02-04T14:28:41;11.50;99.90
67141;DHT22;54058;52.010;5.546;2024-02-04T14:31:07;11.40;99.90
67141;DHT22;54058;52.010;5.546;2024-02-04T14:33:33;11.40;99.90
67141;DHT22;54058;52.010;5.546;2024-02-04T14:35:58;11.40;99.90
67141;DHT22;54058;52.010;5.546;2024-02-04T14:38:26;11.50;99.90
67141;DHT22;54058;52.010;5.546;2024-02-04T14:40:51;11.50;99.90
67141;DHT22;54058;52.010;5.546;2024-02-04T14:43:17;11.50;99.90
67141;DHT22;54058;52.010;5.546;2024-02-04T14:45:43;11.40;99.90
67141;DHT22;54058;52.010;5.546;2024-02-04T14:48:09;11.40;99.90
67141;DHT22;54058;52.010;5.546;2024-02-04T14:50:35;11.50;99.90
67141;DHT22;54058;52.010;5.546;2024-02-04T14:53:00;11.40;99.90
67141;DHT22;54058;52.010;5.546;2024-02-04T14:55:27;11.40;99.90
67141;DHT22;54058;52.010;5.546;2024-02-04T14:57:53;11.40;99.90
67141;DHT22;54058;52.010;5.546;2024-02-04T15:00:19;11.40;99.90
67141;DHT22;54058;52.010;5.546;2024-02-04T15:02:46;11.50;99.90
67141;DHT22;54058;52.010;5.546;2024-02-04T15:05:12;11.50;99.90
67141;DHT22;54058;52.010;5.546;2024-02-04T15:07:37;11.50;99.90
67141;DHT22;54058;52.010;5.546;2024-02-04T15:10:03;11.40;99.90
67141;DHT22;54058;52.010;5.546;2024-02-04T15:12:29;11.40;99.90
67141;DHT22;54058;52.010;5.546;2024-02-04T15:14:55;11.50;99.90
67141;DHT22;54058;52.010;5.546;2024-02-04T15:17:21;11.40;99.90
67141;DHT22;54058;52.010;5.546;2024-02-04T15:19:47;11.40;99.90
67141;DHT22;54058;52.010;5.546;2024-02-04T15:22:13;11.50;99.90
67141;DHT22;54058;52.010;5.546;2024-02-04T15:24:39;11.40;99.90
67141;DHT22;54058;52.010;5.546;2024-02-04T15:27:06;11.50;99.90
67141;DHT22;54058;52.010;5.546;2024-02-04T15:29:37;11.40;99.90
67141;DHT22;54058;52.010;5.546;2024-02-04T15:32:03;11.40;99.90
67141;DHT22;54058;52.010;5.546;2024-02-04T15:34:30;11.40;99.90